sensor_id;sensor_type;location;lat;lon;timestamp;P1;durP1;ratioP1;P2;durP2;ratioP2
35372;SDS011;21476;51.652;7.852;2023-02-21T00:00:14;63.65;;;39.75;;
35372;SDS011;21476;51.652;7.852;2023-02-21T00:02:59;61.70;;;37.15;;
35372;SDS011;21476;51.652;7.852;2023-02-21T00:05:43;63.05;;;38.88;;
35372;SDS011;21476;51.652;7.852;2023-02-21T00:08:27;67.68;;;40.67;;
35372;SDS011;21476;51.652;7.852;2023-02-21T00:11:11;63.67;;;38.35;;
35372;SDS011;21476;51.652;7.852;2023-02-21T00:13:55;63.22;;;38.42;;
35372;SDS011;21476;51.652;7.852;2023-02-21T00:16:39;60.08;;;38.83;;
35372;SDS011;21476;51.652;7.852;2023-02-21T00:19:23;69.63;;;39.83;;
35372;SDS011;21476;51.652;7.852;2023-02-21T00:22:07;70.65;;;42.08;;
35372;SDS011;21476;51.652;7.852;2023-02-21T00:24:51;66.80;;;41.33;;
35372;SDS011;21476;51.652;7.852;2023-02-21T00:27:35;71.35;;;42.25;;
35372;SDS011;21476;51.652;7.852;2023-02-21T00:30:19;69.38;;;42.17;;
35372;SDS011;21476;51.652;7.852;2023-02-21T00:33:03;71.05;;;42.15;;
35372;SDS011;21476;51.652;7.852;2023-02-21T00:35:47;73.00;;;44.22;;
35372;SDS011;21476;51.652;7.852;2023-02-21T00:38:31;68.18;;;41.05;;
35372;SDS011;21476;51.652;7.852;2023-02-21T00:41:15;73.85;;;42.55;;
35372;SDS011;21476;51.652;7.852;2023-02-21T00:43:59;71.10;;;39.88;;
35372;SDS011;21476;51.652;7.852;2023-02-21T00:46:43;73.53;;;42.17;;
35372;SDS011;21476;51.652;7.852;2023-02-21T00:49:28;74.30;;;41.28;;
35372;SDS011;21476;51.652;7.852;2023-02-21T00:52:12;77.18;;;44.35;;
35372;SDS011;21476;51.652;7.852;2023-02-21T00:54:56;73.55;;;41.22;;
35372;SDS011;21476;51.652;7.852;2023-02-21T00:57:40;77.30;;;43.03;;
35372;SDS011;21476;51.652;7.852;2023-02-21T01:00:24;76.80;;;44.22;;
35372;SDS011;21476;51.652;7.852;2023-02-21T01:03:09;83.65;;;45.10;;
35372;SDS011;21476;51.652;7.852;2023-02-21T01:05:53;82.25;;;43.38;;
35372;SDS011;21476;51.652;7.852;2023-02-21T01:08:44;87.75;;;47.45;;
35372;SDS011;21476;51.652;7.852;2023-02-21T01:11:29;82.15;;;44.67;;
35372;SDS011;21476;51.652;7.852;2023-02-21T01:14:14;78.53;;;44.53;;
35372;SDS011;21476;51.652;7.852;2023-02-21T01:16:58;82.43;;;45.80;;
35372;SDS011;21476;51.652;7.852;2023-02-21T01:19:43;91.95;;;47.35;;
35372;SDS011;21476;51.652;7.852;2023-02-21T01:22:28;87.35;;;45.55;;
35372;SDS011;21476;51.652;7.852;2023-02-21T01:25:13;83.88;;;44.47;;
35372;SDS011;21476;51.652;7.852;2023-02-21T01:27:58;90.40;;;47.20;;
35372;SDS011;21476;51.652;7.852;2023-02-21T01:30:42;84.80;;;46.97;;
35372;SDS011;21476;51.652;7.852;2023-02-21T01:33:26;81.35;;;43.55;;
35372;SDS011;21476;51.652;7.852;2023-02-21T01:36:10;93.63;;;46.72;;
35372;SDS011;21476;51.652;7.852;2023-02-21T01:38:54;81.95;;;44.88;;
35372;SDS011;21476;51.652;7.852;2023-02-21T01:41:38;90.35;;;47.55;;
35372;SDS011;21476;51.652;7.852;2023-02-21T01:47:20;92.90;;;48.42;;
35372;SDS011;21476;51.652;7.852;2023-02-21T01:50:17;84.85;;;43.85;;
35372;SDS011;21476;51.652;7.852;2023-02-21T01:53:08;88.25;;;45.15;;
35372;SDS011;21476;51.652;7.852;2023-02-21T01:55:59;85.45;;;45.17;;
35372;SDS011;21476;51.652;7.852;2023-02-21T01:58:45;95.43;;;47.47;;
35372;SDS011;21476;51.652;7.852;2023-02-21T02:01:38;89.45;;;47.30;;
35372;SDS011;21476;51.652;7.852;2023-02-21T02:04:28;89.78;;;46.33;;
35372;SDS011;21476;51.652;7.852;2023-02-21T02:07:14;91.28;;;46.80;;
35372;SDS011;21476;51.652;7.852;2023-02-21T02:09:58;90.43;;;47.25;;
35372;SDS011;21476;51.652;7.852;2023-02-21T02:12:47;99.68;;;47.55;;
35372;SDS011;21476;51.652;7.852;2023-02-21T02:22:25;93.28;;;49.00;;
35372;SDS011;21476;51.652;7.852;2023-02-21T02:30:33;93.57;;;48.17;;
35372;SDS011;21476;51.652;7.852;2023-02-21T02:41:45;95.65;;;49.25;;
35372;SDS011;21476;51.652;7.852;2023-02-21T02:44:33;94.65;;;51.35;;
35372;SDS011;21476;51.652;7.852;2023-02-21T02:47:04;106.10;;;51.97;;
35372;SDS011;21476;51.652;7.852;2023-02-21T02:49:35;105.10;;;50.92;;
35372;SDS011;21476;51.652;7.852;2023-02-21T02:52:04;103.93;;;49.97;;
35372;SDS011;21476;51.652;7.852;2023-02-21T02:54:31;108.97;;;52.40;;
35372;SDS011;21476;51.652;7.852;2023-02-21T02:56:56;101.82;;;51.08;;
35372;SDS011;21476;51.652;7.852;2023-02-21T02:59:24;101.78;;;51.70;;
35372;SDS011;21476;51.652;7.852;2023-02-21T03:07:47;110.57;;;53.70;;
35372;SDS011;21476;51.652;7.852;2023-02-21T03:13:06;112.38;;;53.33;;
35372;SDS011;21476;51.652;7.852;2023-02-21T03:15:54;117.88;;;56.42;;
35372;SDS011;21476;51.652;7.852;2023-02-21T03:18:28;119.18;;;53.08;;
35372;SDS011;21476;51.652;7.852;2023-02-21T03:21:06;114.07;;;53.92;;
35372;SDS011;21476;51.652;7.852;2023-02-21T03:23:40;119.35;;;53.72;;
35372;SDS011;21476;51.652;7.852;2023-02-21T03:26:08;126.57;;;54.53;;
35372;SDS011;21476;51.652;7.852;2023-02-21T03:28:36;118.00;;;54.85;;
35372;SDS011;21476;51.652;7.852;2023-02-21T03:31:03;125.95;;;55.70;;
35372;SDS011;21476;51.652;7.852;2023-02-21T03:33:32;120.05;;;55.30;;
35372;SDS011;21476;51.652;7.852;2023-02-21T03:35:59;111.70;;;52.40;;
35372;SDS011;21476;51.652;7.852;2023-02-21T03:38:27;122.20;;;53.45;;
35372;SDS011;21476;51.652;7.852;2023-02-21T03:40:54;125.85;;;55.42;;
35372;SDS011;21476;51.652;7.852;2023-02-21T03:43:20;128.52;;;55.13;;
35372;SDS011;21476;51.652;7.852;2023-02-21T03:45:46;123.70;;;53.97;;
35372;SDS011;21476;51.652;7.852;2023-02-21T03:48:11;114.75;;;53.55;;
35372;SDS011;21476;51.652;7.852;2023-02-21T03:50:37;132.05;;;55.53;;
35372;SDS011;21476;51.652;7.852;2023-02-21T03:53:03;135.63;;;56.20;;
35372;SDS011;21476;51.652;7.852;2023-02-21T03:55:28;129.40;;;55.13;;
35372;SDS011;21476;51.652;7.852;2023-02-21T03:57:54;133.07;;;55.35;;
35372;SDS011;21476;51.652;7.852;2023-02-21T04:00:20;125.15;;;56.28;;
35372;SDS011;21476;51.652;7.852;2023-02-21T04:02:45;137.27;;;54.88;;
35372;SDS011;21476;51.652;7.852;2023-02-21T04:05:11;125.60;;;53.83;;
35372;SDS011;21476;51.652;7.852;2023-02-21T04:07:37;138.05;;;58.63;;
35372;SDS011;21476;51.652;7.852;2023-02-21T04:10:02;134.98;;;59.72;;
35372;SDS011;21476;51.652;7.852;2023-02-21T04:12:28;135.25;;;55.80;;
35372;SDS011;21476;51.652;7.852;2023-02-21T04:14:54;133.65;;;57.35;;
35372;SDS011;21476;51.652;7.852;2023-02-21T04:17:20;143.23;;;59.08;;
35372;SDS011;21476;51.652;7.852;2023-02-21T04:19:46;139.73;;;60.63;;
35372;SDS011;21476;51.652;7.852;2023-02-21T04:22:11;139.55;;;60.50;;
35372;SDS011;21476;51.652;7.852;2023-02-21T04:24:37;136.43;;;59.85;;
35372;SDS011;21476;51.652;7.852;2023-02-21T04:27:03;141.48;;;61.42;;
35372;SDS011;21476;51.652;7.852;2023-02-21T04:29:28;145.00;;;59.17;;
35372;SDS011;21476;51.652;7.852;2023-02-21T04:31:54;145.32;;;58.38;;
35372;SDS011;21476;51.652;7.852;2023-02-21T04:34:20;148.80;;;60.75;;
35372;SDS011;21476;51.652;7.852;2023-02-21T04:36:45;147.43;;;61.78;;
35372;SDS011;21476;51.652;7.852;2023-02-21T04:39:11;146.18;;;59.45;;
35372;SDS011;21476;51.652;7.852;2023-02-21T04:41:37;150.50;;;59.72;;
35372;SDS011;21476;51.652;7.852;2023-02-21T04:44:03;149.25;;;58.67;;
35372;SDS011;21476;51.652;7.852;2023-02-21T04:46:30;141.15;;;60.78;;
35372;SDS011;21476;51.652;7.852;2023-02-21T04:48:55;153.07;;;59.28;;
35372;SDS011;21476;51.652;7.852;2023-02-21T04:51:22;140.13;;;58.90;;
35372;SDS011;21476;51.652;7.852;2023-02-21T04:53:49;133.05;;;58.25;;
35372;SDS011;21476;51.652;7.852;2023-02-21T04:56:17;143.88;;;59.30;;
35372;SDS011;21476;51.652;7.852;2023-02-21T04:58:44;139.32;;;58.65;;
35372;SDS011;21476;51.652;7.852;2023-02-21T05:01:10;149.07;;;60.28;;
35372;SDS011;21476;51.652;7.852;2023-02-21T05:03:36;148.20;;;61.53;;
35372;SDS011;21476;51.652;7.852;2023-02-21T05:06:02;141.57;;;59.47;;
35372;SDS011;21476;51.652;7.852;2023-02-21T05:08:28;153.27;;;61.88;;
35372;SDS011;21476;51.652;7.852;2023-02-21T05:10:54;154.52;;;62.80;;
35372;SDS011;21476;51.652;7.852;2023-02-21T05:13:20;132.93;;;59.25;;
35372;SDS011;21476;51.652;7.852;2023-02-21T05:15:46;139.98;;;60.05;;
35372;SDS011;21476;51.652;7.852;2023-02-21T05:18:12;131.90;;;58.20;;
35372;SDS011;21476;51.652;7.852;2023-02-21T05:20:38;139.48;;;59.65;;
35372;SDS011;21476;51.652;7.852;2023-02-21T05:23:04;138.80;;;60.58;;
35372;SDS011;21476;51.652;7.852;2023-02-21T05:25:30;140.27;;;58.15;;
35372;SDS011;21476;51.652;7.852;2023-02-21T05:27:55;135.05;;;60.63;;
35372;SDS011;21476;51.652;7.852;2023-02-21T05:30:21;135.10;;;56.33;;
35372;SDS011;21476;51.652;7.852;2023-02-21T05:32:50;136.65;;;59.13;;
35372;SDS011;21476;51.652;7.852;2023-02-21T05:35:16;136.02;;;57.05;;
35372;SDS011;21476;51.652;7.852;2023-02-21T05:37:42;145.60;;;60.10;;
35372;SDS011;21476;51.652;7.852;2023-02-21T05:40:12;139.05;;;58.40;;
35372;SDS011;21476;51.652;7.852;2023-02-21T05:42:39;120.85;;;54.03;;
35372;SDS011;21476;51.652;7.852;2023-02-21T05:45:06;126.00;;;56.40;;
35372;SDS011;21476;51.652;7.852;2023-02-21T05:47:33;123.85;;;56.20;;
35372;SDS011;21476;51.652;7.852;2023-02-21T05:49:59;127.13;;;56.05;;
35372;SDS011;21476;51.652;7.852;2023-02-21T05:52:25;124.90;;;57.65;;
35372;SDS011;21476;51.652;7.852;2023-02-21T05:54:50;131.73;;;55.90;;
35372;SDS011;21476;51.652;7.852;2023-02-21T05:57:16;133.93;;;55.65;;
35372;SDS011;21476;51.652;7.852;2023-02-21T05:59:42;124.28;;;54.10;;
35372;SDS011;21476;51.652;7.852;2023-02-21T06:02:08;127.43;;;57.45;;
35372;SDS011;21476;51.652;7.852;2023-02-21T06:04:34;126.00;;;58.85;;
35372;SDS011;21476;51.652;7.852;2023-02-21T06:06:59;132.48;;;57.22;;
35372;SDS011;21476;51.652;7.852;2023-02-21T06:09:25;129.65;;;56.00;;
35372;SDS011;21476;51.652;7.852;2023-02-21T06:11:54;115.07;;;52.60;;
35372;SDS011;21476;51.652;7.852;2023-02-21T06:14:20;122.97;;;54.97;;
35372;SDS011;21476;51.652;7.852;2023-02-21T06:16:46;117.35;;;53.65;;
35372;SDS011;21476;51.652;7.852;2023-02-21T06:19:12;125.95;;;54.38;;
35372;SDS011;21476;51.652;7.852;2023-02-21T06:21:40;121.68;;;54.58;;
35372;SDS011;21476;51.652;7.852;2023-02-21T06:24:07;125.28;;;54.60;;
35372;SDS011;21476;51.652;7.852;2023-02-21T06:26:34;120.97;;;54.08;;
35372;SDS011;21476;51.652;7.852;2023-02-21T06:29:01;112.40;;;50.88;;
35372;SDS011;21476;51.652;7.852;2023-02-21T06:31:28;120.85;;;52.33;;
35372;SDS011;21476;51.652;7.852;2023-02-21T06:33:53;114.55;;;51.72;;
35372;SDS011;21476;51.652;7.852;2023-02-21T06:36:21;114.15;;;49.40;;
35372;SDS011;21476;51.652;7.852;2023-02-21T06:38:50;125.03;;;52.30;;
35372;SDS011;21476;51.652;7.852;2023-02-21T06:41:17;106.78;;;51.10;;
35372;SDS011;21476;51.652;7.852;2023-02-21T06:43:44;110.07;;;50.42;;
35372;SDS011;21476;51.652;7.852;2023-02-21T06:46:14;123.57;;;52.25;;
35372;SDS011;21476;51.652;7.852;2023-02-21T06:48:44;118.03;;;51.25;;
35372;SDS011;21476;51.652;7.852;2023-02-21T06:51:09;123.68;;;53.00;;
35372;SDS011;21476;51.652;7.852;2023-02-21T06:53:36;107.43;;;48.63;;
35372;SDS011;21476;51.652;7.852;2023-02-21T06:56:02;120.75;;;50.58;;
35372;SDS011;21476;51.652;7.852;2023-02-21T06:58:28;116.68;;;49.80;;
35372;SDS011;21476;51.652;7.852;2023-02-21T07:00:54;126.18;;;52.67;;
35372;SDS011;21476;51.652;7.852;2023-02-21T07:03:20;121.70;;;52.10;;
35372;SDS011;21476;51.652;7.852;2023-02-21T07:05:45;126.32;;;54.15;;
35372;SDS011;21476;51.652;7.852;2023-02-21T07:08:11;127.03;;;53.45;;
35372;SDS011;21476;51.652;7.852;2023-02-21T07:10:36;120.43;;;51.85;;
35372;SDS011;21476;51.652;7.852;2023-02-21T07:13:02;124.20;;;52.03;;
35372;SDS011;21476;51.652;7.852;2023-02-21T07:15:28;126.20;;;53.95;;
35372;SDS011;21476;51.652;7.852;2023-02-21T07:17:53;132.70;;;55.42;;
35372;SDS011;21476;51.652;7.852;2023-02-21T07:20:19;137.02;;;54.88;;
35372;SDS011;21476;51.652;7.852;2023-02-21T07:22:45;127.22;;;54.75;;
35372;SDS011;21476;51.652;7.852;2023-02-21T07:25:17;132.07;;;53.63;;
35372;SDS011;21476;51.652;7.852;2023-02-21T07:27:48;126.68;;;52.90;;
35372;SDS011;21476;51.652;7.852;2023-02-21T07:30:14;129.13;;;55.10;;
35372;SDS011;21476;51.652;7.852;2023-02-21T07:32:40;130.57;;;51.40;;
35372;SDS011;21476;51.652;7.852;2023-02-21T07:35:06;127.70;;;51.67;;
35372;SDS011;21476;51.652;7.852;2023-02-21T07:37:32;133.73;;;53.45;;
35372;SDS011;21476;51.652;7.852;2023-02-21T07:39:58;127.00;;;52.47;;
35372;SDS011;21476;51.652;7.852;2023-02-21T07:42:24;131.75;;;55.45;;
35372;SDS011;21476;51.652;7.852;2023-02-21T07:44:53;123.93;;;53.40;;
35372;SDS011;21476;51.652;7.852;2023-02-21T07:47:20;126.63;;;53.42;;
35372;SDS011;21476;51.652;7.852;2023-02-21T07:49:46;137.63;;;54.28;;
35372;SDS011;21476;51.652;7.852;2023-02-21T07:52:12;135.32;;;55.65;;
35372;SDS011;21476;51.652;7.852;2023-02-21T07:54:37;133.57;;;54.58;;
35372;SDS011;21476;51.652;7.852;2023-02-21T07:57:04;152.05;;;58.03;;
35372;SDS011;21476;51.652;7.852;2023-02-21T07:59:29;157.32;;;58.42;;
35372;SDS011;21476;51.652;7.852;2023-02-21T08:01:55;139.20;;;53.90;;
35372;SDS011;21476;51.652;7.852;2023-02-21T08:04:21;147.77;;;58.63;;
35372;SDS011;21476;51.652;7.852;2023-02-21T08:06:48;151.38;;;58.50;;
35372;SDS011;21476;51.652;7.852;2023-02-21T08:09:13;144.00;;;54.92;;
35372;SDS011;21476;51.652;7.852;2023-02-21T08:11:39;140.80;;;56.60;;
35372;SDS011;21476;51.652;7.852;2023-02-21T08:14:05;141.02;;;57.25;;
35372;SDS011;21476;51.652;7.852;2023-02-21T08:16:31;141.25;;;57.40;;
35372;SDS011;21476;51.652;7.852;2023-02-21T08:18:57;136.32;;;56.42;;
35372;SDS011;21476;51.652;7.852;2023-02-21T08:21:23;135.65;;;57.58;;
35372;SDS011;21476;51.652;7.852;2023-02-21T08:23:52;132.32;;;56.92;;
35372;SDS011;21476;51.652;7.852;2023-02-21T08:26:18;139.32;;;57.70;;
35372;SDS011;21476;51.652;7.852;2023-02-21T08:28:45;125.97;;;54.45;;
35372;SDS011;21476;51.652;7.852;2023-02-21T08:31:10;136.57;;;54.90;;
35372;SDS011;21476;51.652;7.852;2023-02-21T08:33:36;121.10;;;54.00;;
35372;SDS011;21476;51.652;7.852;2023-02-21T08:36:02;139.07;;;57.08;;
35372;SDS011;21476;51.652;7.852;2023-02-21T08:38:28;129.23;;;53.50;;
35372;SDS011;21476;51.652;7.852;2023-02-21T08:40:54;123.13;;;52.35;;
35372;SDS011;21476;51.652;7.852;2023-02-21T08:43:19;128.20;;;53.42;;
35372;SDS011;21476;51.652;7.852;2023-02-21T08:45:45;125.93;;;53.88;;
35372;SDS011;21476;51.652;7.852;2023-02-21T08:48:11;131.32;;;51.70;;
35372;SDS011;21476;51.652;7.852;2023-02-21T08:50:36;118.32;;;51.78;;
35372;SDS011;21476;51.652;7.852;2023-02-21T08:53:02;125.03;;;52.90;;
35372;SDS011;21476;51.652;7.852;2023-02-21T08:55:28;122.10;;;54.40;;
35372;SDS011;21476;51.652;7.852;2023-02-21T08:57:53;121.55;;;52.42;;
35372;SDS011;21476;51.652;7.852;2023-02-21T09:00:20;119.53;;;53.55;;
35372;SDS011;21476;51.652;7.852;2023-02-21T09:02:48;127.78;;;52.53;;
35372;SDS011;21476;51.652;7.852;2023-02-21T09:05:18;118.53;;;52.33;;
35372;SDS011;21476;51.652;7.852;2023-02-21T09:07:51;118.28;;;51.22;;
35372;SDS011;21476;51.652;7.852;2023-02-21T09:10:22;114.20;;;51.80;;
35372;SDS011;21476;51.652;7.852;2023-02-21T09:12:52;130.95;;;54.28;;
35372;SDS011;21476;51.652;7.852;2023-02-21T09:15:18;122.07;;;52.90;;
35372;SDS011;21476;51.652;7.852;2023-02-21T09:17:44;120.03;;;50.53;;
35372;SDS011;21476;51.652;7.852;2023-02-21T09:20:12;117.53;;;51.13;;
35372;SDS011;21476;51.652;7.852;2023-02-21T09:22:42;118.72;;;52.10;;
35372;SDS011;21476;51.652;7.852;2023-02-21T09:25:11;116.25;;;52.55;;
35372;SDS011;21476;51.652;7.852;2023-02-21T09:27:38;117.55;;;51.83;;
35372;SDS011;21476;51.652;7.852;2023-02-21T09:30:05;118.85;;;52.97;;
35372;SDS011;21476;51.652;7.852;2023-02-21T09:32:33;111.97;;;51.13;;
35372;SDS011;21476;51.652;7.852;2023-02-21T09:35:00;115.13;;;52.13;;
35372;SDS011;21476;51.652;7.852;2023-02-21T09:37:26;121.13;;;52.75;;
35372;SDS011;21476;51.652;7.852;2023-02-21T09:39:52;121.80;;;54.67;;
35372;SDS011;21476;51.652;7.852;2023-02-21T09:42:18;126.50;;;52.25;;
35372;SDS011;21476;51.652;7.852;2023-02-21T09:44:48;118.97;;;54.65;;
35372;SDS011;21476;51.652;7.852;2023-02-21T09:47:16;118.45;;;51.60;;
35372;SDS011;21476;51.652;7.852;2023-02-21T09:49:49;120.13;;;52.67;;
35372;SDS011;21476;51.652;7.852;2023-02-21T09:52:24;117.25;;;51.97;;
35372;SDS011;21476;51.652;7.852;2023-02-21T09:54:56;117.65;;;52.63;;
35372;SDS011;21476;51.652;7.852;2023-02-21T09:57:24;109.43;;;53.03;;
35372;SDS011;21476;51.652;7.852;2023-02-21T09:59:49;114.15;;;50.90;;
35372;SDS011;21476;51.652;7.852;2023-02-21T10:10:32;105.05;;;49.10;;
35372;SDS011;21476;51.652;7.852;2023-02-21T10:18:55;116.80;;;51.13;;
35372;SDS011;21476;51.652;7.852;2023-02-21T10:21:41;127.32;;;53.92;;
35372;SDS011;21476;51.652;7.852;2023-02-21T10:26:52;103.88;;;46.47;;
35372;SDS011;21476;51.652;7.852;2023-02-21T10:29:25;112.15;;;48.15;;
35372;SDS011;21476;51.652;7.852;2023-02-21T10:34:27;114.53;;;48.65;;
35372;SDS011;21476;51.652;7.852;2023-02-21T10:36:54;115.35;;;50.05;;
35372;SDS011;21476;51.652;7.852;2023-02-21T10:39:45;103.38;;;45.78;;
35372;SDS011;21476;51.652;7.852;2023-02-21T10:42:20;102.47;;;46.60;;
35372;SDS011;21476;51.652;7.852;2023-02-21T10:45:02;90.00;;;43.50;;
35372;SDS011;21476;51.652;7.852;2023-02-21T10:48:16;92.72;;;44.10;;
35372;SDS011;21476;51.652;7.852;2023-02-21T10:53:26;94.60;;;41.63;;
35372;SDS011;21476;51.652;7.852;2023-02-21T10:59:03;92.35;;;42.80;;
35372;SDS011;21476;51.652;7.852;2023-02-21T11:01:40;88.05;;;41.20;;
35372;SDS011;21476;51.652;7.852;2023-02-21T11:06:53;100.65;;;44.95;;
35372;SDS011;21476;51.652;7.852;2023-02-21T11:12:01;102.85;;;45.13;;
35372;SDS011;21476;51.652;7.852;2023-02-21T11:14:32;96.78;;;43.33;;
35372;SDS011;21476;51.652;7.852;2023-02-21T11:17:12;99.38;;;43.67;;
35372;SDS011;21476;51.652;7.852;2023-02-21T11:19:53;98.75;;;42.03;;
35372;SDS011;21476;51.652;7.852;2023-02-21T11:22:40;97.80;;;41.93;;
35372;SDS011;21476;51.652;7.852;2023-02-21T11:27:36;98.13;;;40.78;;
35372;SDS011;21476;51.652;7.852;2023-02-21T11:30:03;97.95;;;42.42;;
35372;SDS011;21476;51.652;7.852;2023-02-21T11:32:40;89.55;;;40.25;;
35372;SDS011;21476;51.652;7.852;2023-02-21T11:38:03;87.38;;;40.60;;
35372;SDS011;21476;51.652;7.852;2023-02-21T11:40:33;85.57;;;39.28;;
35372;SDS011;21476;51.652;7.852;2023-02-21T11:45:51;80.80;;;38.80;;
35372;SDS011;21476;51.652;7.852;2023-02-21T11:49:19;80.47;;;36.72;;
35372;SDS011;21476;51.652;7.852;2023-02-21T11:54:11;79.20;;;34.63;;
35372;SDS011;21476;51.652;7.852;2023-02-21T12:15:50;61.05;;;30.88;;
35372;SDS011;21476;51.652;7.852;2023-02-21T12:24:08;55.28;;;28.20;;
35372;SDS011;21476;51.652;7.852;2023-02-21T12:26:50;62.03;;;31.77;;
35372;SDS011;21476;51.652;7.852;2023-02-21T12:29:38;60.72;;;29.63;;
35372;SDS011;21476;51.652;7.852;2023-02-21T12:32:15;61.22;;;29.98;;
35372;SDS011;21476;51.652;7.852;2023-02-21T12:35:02;58.17;;;29.23;;
35372;SDS011;21476;51.652;7.852;2023-02-21T12:46:17;62.87;;;30.53;;
35372;SDS011;21476;51.652;7.852;2023-02-21T12:51:40;53.72;;;29.42;;
35372;SDS011;21476;51.652;7.852;2023-02-21T12:54:36;50.40;;;27.35;;
35372;SDS011;21476;51.652;7.852;2023-02-21T12:59:45;50.78;;;27.05;;
35372;SDS011;21476;51.652;7.852;2023-02-21T13:02:57;52.00;;;27.63;;
35372;SDS011;21476;51.652;7.852;2023-02-21T13:05:32;50.03;;;26.42;;
35372;SDS011;21476;51.652;7.852;2023-02-21T13:10:50;50.53;;;24.70;;
35372;SDS011;21476;51.652;7.852;2023-02-21T13:13:18;50.65;;;25.40;;
35372;SDS011;21476;51.652;7.852;2023-02-21T13:15:50;47.80;;;24.20;;
35372;SDS011;21476;51.652;7.852;2023-02-21T13:18:52;45.97;;;24.65;;
35372;SDS011;21476;51.652;7.852;2023-02-21T13:29:52;36.45;;;21.60;;
35372;SDS011;21476;51.652;7.852;2023-02-21T13:32:32;36.55;;;21.30;;
35372;SDS011;21476;51.652;7.852;2023-02-21T13:35:03;37.63;;;20.63;;
35372;SDS011;21476;51.652;7.852;2023-02-21T13:37:32;39.33;;;20.55;;
35372;SDS011;21476;51.652;7.852;2023-02-21T13:40:04;30.48;;;19.23;;
35372;SDS011;21476;51.652;7.852;2023-02-21T13:42:40;37.97;;;21.85;;
35372;SDS011;21476;51.652;7.852;2023-02-21T13:45:14;36.10;;;19.95;;
35372;SDS011;21476;51.652;7.852;2023-02-21T13:55:36;29.45;;;18.00;;
35372;SDS011;21476;51.652;7.852;2023-02-21T14:08:31;34.30;;;21.00;;
35372;SDS011;21476;51.652;7.852;2023-02-21T14:13:49;31.08;;;18.63;;
35372;SDS011;21476;51.652;7.852;2023-02-21T14:18:59;30.58;;;18.10;;
35372;SDS011;21476;51.652;7.852;2023-02-21T14:21:39;33.88;;;20.48;;
35372;SDS011;21476;51.652;7.852;2023-02-21T14:26:44;31.13;;;18.67;;
35372;SDS011;21476;51.652;7.852;2023-02-21T14:29:14;28.27;;;19.27;;
35372;SDS011;21476;51.652;7.852;2023-02-21T14:34:35;28.33;;;19.05;;
35372;SDS011;21476;51.652;7.852;2023-02-21T14:39:47;28.13;;;18.05;;
35372;SDS011;21476;51.652;7.852;2023-02-21T14:42:41;28.40;;;18.45;;
35372;SDS011;21476;51.652;7.852;2023-02-21T15:02:33;32.33;;;20.45;;
35372;SDS011;21476;51.652;7.852;2023-02-21T15:10:43;34.65;;;21.35;;
35372;SDS011;21476;51.652;7.852;2023-02-21T15:13:21;32.70;;;21.50;;
35372;SDS011;21476;51.652;7.852;2023-02-21T15:15:55;36.42;;;21.52;;
35372;SDS011;21476;51.652;7.852;2023-02-21T15:21:05;35.05;;;22.55;;
35372;SDS011;21476;51.652;7.852;2023-02-21T15:23:43;38.33;;;24.48;;
35372;SDS011;21476;51.652;7.852;2023-02-21T15:28:45;37.47;;;23.50;;
35372;SDS011;21476;51.652;7.852;2023-02-21T15:31:26;36.17;;;23.58;;
35372;SDS011;21476;51.652;7.852;2023-02-21T15:33:52;35.38;;;24.08;;
35372;SDS011;21476;51.652;7.852;2023-02-21T15:36:19;36.63;;;22.70;;
35372;SDS011;21476;51.652;7.852;2023-02-21T15:38:51;39.55;;;24.88;;
35372;SDS011;21476;51.652;7.852;2023-02-21T15:46:59;38.22;;;23.98;;
35372;SDS011;21476;51.652;7.852;2023-02-21T15:49:37;38.20;;;23.48;;
35372;SDS011;21476;51.652;7.852;2023-02-21T15:52:29;34.97;;;22.13;;
35372;SDS011;21476;51.652;7.852;2023-02-21T15:58:12;32.95;;;21.50;;
35372;SDS011;21476;51.652;7.852;2023-02-21T16:00:47;36.45;;;22.98;;
35372;SDS011;21476;51.652;7.852;2023-02-21T16:08:32;39.40;;;24.08;;
35372;SDS011;21476;51.652;7.852;2023-02-21T16:11:01;39.58;;;24.88;;
35372;SDS011;21476;51.652;7.852;2023-02-21T16:13:37;36.53;;;23.50;;
35372;SDS011;21476;51.652;7.852;2023-02-21T16:16:07;38.05;;;23.30;;
35372;SDS011;21476;51.652;7.852;2023-02-21T16:18:37;36.65;;;23.25;;
35372;SDS011;21476;51.652;7.852;2023-02-21T16:21:06;38.65;;;22.83;;
35372;SDS011;21476;51.652;7.852;2023-02-21T16:23:51;36.67;;;23.17;;
35372;SDS011;21476;51.652;7.852;2023-02-21T16:26:21;42.80;;;23.77;;
35372;SDS011;21476;51.652;7.852;2023-02-21T16:28:52;36.65;;;23.05;;
35372;SDS011;21476;51.652;7.852;2023-02-21T16:31:31;39.20;;;22.45;;
35372;SDS011;21476;51.652;7.852;2023-02-21T16:33:58;42.65;;;25.38;;
35372;SDS011;21476;51.652;7.852;2023-02-21T16:36:27;35.85;;;23.88;;
35372;SDS011;21476;51.652;7.852;2023-02-21T16:38:55;33.97;;;22.17;;
35372;SDS011;21476;51.652;7.852;2023-02-21T16:41:24;40.47;;;23.33;;
35372;SDS011;21476;51.652;7.852;2023-02-21T16:43:53;37.67;;;22.40;;
35372;SDS011;21476;51.652;7.852;2023-02-21T16:46:23;38.83;;;24.70;;
35372;SDS011;21476;51.652;7.852;2023-02-21T16:48:55;41.63;;;25.75;;
35372;SDS011;21476;51.652;7.852;2023-02-21T16:51:24;42.03;;;25.23;;
35372;SDS011;21476;51.652;7.852;2023-02-21T16:54:03;41.20;;;23.77;;
35372;SDS011;21476;51.652;7.852;2023-02-21T16:56:38;41.15;;;24.48;;
35372;SDS011;21476;51.652;7.852;2023-02-21T16:59:11;46.33;;;28.92;;
35372;SDS011;21476;51.652;7.852;2023-02-21T17:01:39;43.85;;;25.95;;
35372;SDS011;21476;51.652;7.852;2023-02-21T17:04:41;45.30;;;26.55;;
35372;SDS011;21476;51.652;7.852;2023-02-21T17:07:00;39.27;;;25.30;;
35372;SDS011;21476;51.652;7.852;2023-02-21T17:09:28;40.42;;;24.60;;
35372;SDS011;21476;51.652;7.852;2023-02-21T17:11:57;36.78;;;22.60;;
35372;SDS011;21476;51.652;7.852;2023-02-21T17:14:26;39.95;;;24.98;;
35372;SDS011;21476;51.652;7.852;2023-02-21T17:16:52;42.53;;;24.20;;
35372;SDS011;21476;51.652;7.852;2023-02-21T17:19:18;41.80;;;25.20;;
35372;SDS011;21476;51.652;7.852;2023-02-21T17:21:54;42.03;;;25.98;;
35372;SDS011;21476;51.652;7.852;2023-02-21T17:24:22;36.63;;;23.85;;
35372;SDS011;21476;51.652;7.852;2023-02-21T17:26:50;42.60;;;25.95;;
35372;SDS011;21476;51.652;7.852;2023-02-21T17:29:16;44.78;;;26.08;;
35372;SDS011;21476;51.652;7.852;2023-02-21T17:31:42;44.45;;;26.67;;
35372;SDS011;21476;51.652;7.852;2023-02-21T17:34:10;44.65;;;26.50;;
35372;SDS011;21476;51.652;7.852;2023-02-21T17:36:48;43.65;;;25.05;;
35372;SDS011;21476;51.652;7.852;2023-02-21T17:39:18;50.05;;;28.88;;
35372;SDS011;21476;51.652;7.852;2023-02-21T17:41:48;52.90;;;32.72;;
35372;SDS011;21476;51.652;7.852;2023-02-21T17:44:15;65.30;;;39.53;;
35372;SDS011;21476;51.652;7.852;2023-02-21T17:46:45;128.57;;;60.83;;
35372;SDS011;21476;51.652;7.852;2023-02-21T17:49:12;92.32;;;45.33;;
35372;SDS011;21476;51.652;7.852;2023-02-21T17:51:40;65.68;;;38.53;;
35372;SDS011;21476;51.652;7.852;2023-02-21T17:54:05;55.53;;;31.58;;
35372;SDS011;21476;51.652;7.852;2023-02-21T17:56:31;51.35;;;29.65;;
35372;SDS011;21476;51.652;7.852;2023-02-21T17:58:56;48.15;;;28.60;;